Bullhead City Fort Mohave, Arizona
Current Conditions -  °F | °C
As of 8:35 PM on Monday 26 Jan 2015 (Local Time) from KIFP Reporting Station
Broken Clouds Broken Clouds  
Wind Chill: 59°   Ceiling: 9000
Heat Index: 59°   Visibility: 10mi
Dew Point: 50°   Wind: 7mph
Humidity: 72%   Direction: 150°SSE
Pressure: 30.15"   Gusts: NA
Location:  35.0298°N, 114.577°W
Report Text: KIFP 270335Z AUTO 15006KT 10SM FEW043 BKN090 15/10 A3015 RMK AO2 P0001 PWINO
Loading
Personal Weather Stations






























Interactive Weather Map New forecast layout! Learn more

10-Day Weather Forecast

Advertisements
Track Severe Weather on mobile